createdAt,value
2022-12-22T00:02:07.178Z,4.10
2022-12-22T00:04:53.039Z,3.60
2022-12-22T00:07:38.449Z,3.60
2022-12-22T00:10:25.040Z,3.07
2022-12-22T00:13:10.392Z,3.47
2022-12-22T00:15:55.845Z,3.30
2022-12-22T00:18:41.326Z,2.80
2022-12-22T00:21:30.723Z,3.93
2022-12-22T00:24:17.082Z,4.07
2022-12-22T00:27:03.557Z,3.80
2022-12-22T00:30:00.172Z,3.93
2022-12-22T00:32:53.190Z,4.03
2022-12-22T00:35:41.908Z,4.30
2022-12-22T00:38:36.148Z,4.17
2022-12-22T00:41:22.231Z,3.53
2022-12-22T00:44:07.516Z,3.73
2022-12-22T00:46:56.524Z,4.00
2022-12-22T00:49:44.893Z,4.00
2022-12-22T00:52:30.805Z,4.03
2022-12-22T00:55:16.533Z,3.57
2022-12-22T00:58:02.573Z,3.50
2022-12-22T01:00:48.302Z,3.67
2022-12-22T01:03:33.791Z,3.50
2022-12-22T01:06:20.976Z,4.00
2022-12-22T01:09:06.298Z,3.80
2022-12-22T01:11:53.313Z,4.57
2022-12-22T01:14:38.878Z,4.17
2022-12-22T01:17:24.344Z,3.80
2022-12-22T01:20:09.886Z,3.97
2022-12-22T01:22:55.286Z,3.93
2022-12-22T01:25:40.814Z,4.10
2022-12-22T01:28:34.634Z,3.40
2022-12-22T01:31:39.602Z,3.27
2022-12-22T01:34:25.091Z,3.87
2022-12-22T01:37:10.493Z,3.30
2022-12-22T01:39:56.040Z,3.57
2022-12-22T01:42:42.165Z,3.43
2022-12-22T01:45:39.135Z,3.47
2022-12-22T01:48:28.559Z,3.10
2022-12-22T01:51:14.049Z,3.37
2022-12-22T01:53:59.582Z,2.80
2022-12-22T01:56:45.574Z,3.43
2022-12-22T01:59:31.042Z,2.97
2022-12-22T02:02:18.753Z,2.57
2022-12-22T02:05:06.135Z,2.63
2022-12-22T02:08:14.588Z,2.07
2022-12-22T02:11:18.025Z,2.77
2022-12-22T02:14:30.193Z,2.50
2022-12-22T02:17:40.050Z,2.47
2022-12-22T02:20:49.780Z,2.27
2022-12-22T02:24:06.021Z,2.50
2022-12-22T02:27:03.261Z,2.70
2022-12-22T02:29:53.921Z,2.27
2022-12-22T02:32:41.295Z,2.70
2022-12-22T02:35:34.409Z,2.27
2022-12-22T02:38:43.845Z,2.20
2022-12-22T02:41:53.792Z,1.90
2022-12-22T02:45:03.485Z,1.83
2022-12-22T02:48:02.193Z,1.30
2022-12-22T02:50:58.470Z,1.90
2022-12-22T02:53:45.603Z,1.70
2022-12-22T02:56:31.102Z,2.00
2022-12-22T02:59:16.633Z,1.70
2022-12-22T03:02:04.524Z,1.70
2022-12-22T03:04:49.747Z,1.63
2022-12-22T03:07:35.090Z,1.43
2022-12-22T03:10:20.654Z,1.40
2022-12-22T03:13:05.989Z,1.10
2022-12-22T03:15:51.510Z,0.97
2022-12-22T03:18:36.710Z,1.50
2022-12-22T03:21:22.098Z,1.07
2022-12-22T03:24:07.450Z,1.20
2022-12-22T03:26:34.130Z,0.90
2022-12-22T03:29:00.735Z,1.23
2022-12-22T03:31:27.673Z,1.20
2022-12-22T03:33:54.827Z,1.80
2022-12-22T03:36:21.488Z,1.60
2022-12-22T03:38:48.119Z,1.40
2022-12-22T03:41:34.761Z,1.83
2022-12-22T03:44:20.249Z,1.77
2022-12-22T03:46:46.899Z,1.80
2022-12-22T03:49:13.796Z,1.50
2022-12-22T03:51:46.507Z,1.80
2022-12-22T03:54:18.776Z,2.27
2022-12-22T03:56:46.296Z,2.20
2022-12-22T03:59:13.895Z,2.33
2022-12-22T04:01:47.620Z,2.07
2022-12-22T04:04:16.998Z,1.70
2022-12-22T04:06:44.310Z,2.83
2022-12-22T04:09:11.613Z,1.90
2022-12-22T04:11:56.913Z,2.20
2022-12-22T04:14:29.675Z,1.87
2022-12-22T04:17:00.084Z,1.30
2022-12-22T04:19:26.777Z,1.80
2022-12-22T04:21:54.481Z,2.00
2022-12-22T04:24:22.087Z,1.60
2022-12-22T04:26:48.906Z,1.30
2022-12-22T04:29:15.612Z,1.00
2022-12-22T04:31:43.599Z,0.80
2022-12-22T04:34:10.300Z,0.90
2022-12-22T04:36:37.223Z,0.80
2022-12-22T04:39:03.897Z,0.80
2022-12-22T04:41:30.551Z,0.60
2022-12-22T04:43:57.144Z,1.00
2022-12-22T04:46:23.833Z,1.23
2022-12-22T04:48:54.637Z,1.50
2022-12-22T04:51:26.278Z,1.03
2022-12-22T04:53:53.040Z,1.10
2022-12-22T04:56:19.657Z,1.20
2022-12-22T04:58:46.274Z,1.40
2022-12-22T05:01:16.135Z,1.47
2022-12-22T05:03:43.396Z,1.17
2022-12-22T05:06:10.859Z,1.23
2022-12-22T05:08:38.110Z,1.03
2022-12-22T05:11:05.429Z,1.00
2022-12-22T05:13:32.756Z,1.10
2022-12-22T05:16:14.459Z,0.77
2022-12-22T05:18:42.437Z,0.50
2022-12-22T05:21:18.916Z,0.60
2022-12-22T05:23:45.965Z,0.63
2022-12-22T05:26:14.523Z,0.70
2022-12-22T05:28:42.580Z,0.50
2022-12-22T05:31:22.359Z,0.47
2022-12-22T05:33:49.253Z,0.53
2022-12-22T05:36:16.615Z,0.73
2022-12-22T05:38:44.593Z,0.50
2022-12-22T05:41:11.294Z,0.60
2022-12-22T05:43:38.245Z,0.70
2022-12-22T05:46:06.741Z,1.33
2022-12-22T05:48:37.997Z,0.53
2022-12-22T05:51:05.858Z,0.50
2022-12-22T05:53:32.451Z,0.70
2022-12-22T05:55:59.107Z,0.90
2022-12-22T05:58:25.929Z,0.60
2022-12-22T06:00:57.517Z,1.07
2022-12-22T06:03:26.067Z,0.60
2022-12-22T06:05:53.727Z,1.23
2022-12-22T06:08:20.650Z,14.80
2022-12-22T06:10:47.320Z,2.83
2022-12-22T06:13:14.320Z,2.40
2022-12-22T06:15:41.172Z,2.20
2022-12-22T06:18:07.800Z,1.70
2022-12-22T06:20:34.406Z,2.83
2022-12-22T06:23:01.092Z,2.93
2022-12-22T06:25:27.707Z,2.67
2022-12-22T06:27:54.328Z,1.67
2022-12-22T06:30:21.937Z,1.90
2022-12-22T06:32:51.222Z,2.40
2022-12-22T06:35:17.924Z,3.50
2022-12-22T06:37:45.111Z,4.17
2022-12-22T06:40:12.075Z,3.73
2022-12-22T06:43:02.143Z,4.03
2022-12-22T06:45:32.620Z,5.03
2022-12-22T06:47:59.261Z,4.97
2022-12-22T06:50:25.927Z,5.40
2022-12-22T06:52:52.638Z,8.20
2022-12-22T06:55:19.271Z,8.10
2022-12-22T06:57:45.943Z,10.10
2022-12-22T07:00:12.997Z,12.77
2022-12-22T07:02:39.788Z,13.20
2022-12-22T07:05:07.078Z,12.57
2022-12-22T07:07:33.872Z,13.30
2022-12-22T07:10:00.555Z,13.90
2022-12-22T07:12:27.406Z,14.80
2022-12-22T07:14:54.122Z,15.70
2022-12-22T07:17:20.734Z,13.60
2022-12-22T07:19:47.661Z,14.10
2022-12-22T07:22:14.288Z,13.50
2022-12-22T07:24:40.896Z,14.90
2022-12-22T07:27:07.512Z,14.00
2022-12-22T07:29:36.100Z,15.37
2022-12-22T07:32:03.235Z,18.07
2022-12-22T07:34:29.907Z,20.47
2022-12-22T07:36:56.517Z,17.57
2022-12-22T07:39:23.119Z,17.60
2022-12-22T07:42:08.274Z,19.90
2022-12-22T07:44:34.907Z,17.23
2022-12-22T07:47:01.533Z,21.43
2022-12-22T07:49:47.028Z,20.27
2022-12-22T07:52:13.751Z,17.23
2022-12-22T07:54:42.321Z,19.30
2022-12-22T07:57:09.132Z,19.20
2022-12-22T07:59:35.795Z,20.00
2022-12-22T08:02:02.517Z,19.30
2022-12-22T08:04:29.234Z,22.00
2022-12-22T08:06:55.924Z,20.90
2022-12-22T08:09:22.867Z,33.33
2022-12-22T08:11:50.061Z,21.93
2022-12-22T08:14:16.676Z,28.60
2022-12-22T08:16:43.345Z,66.70
2022-12-22T08:19:10.097Z,41.67
2022-12-22T08:21:36.732Z,41.57
2022-12-22T08:24:03.394Z,32.27
2022-12-22T08:26:43.768Z,51.00
2022-12-22T08:29:15.681Z,42.67
2022-12-22T08:31:42.660Z,39.10
2022-12-22T08:34:12.647Z,24.30
2022-12-22T08:36:44.187Z,21.77
2022-12-22T08:39:11.644Z,15.40
2022-12-22T08:41:56.340Z,16.90
2022-12-22T08:44:28.715Z,16.73
2022-12-22T08:46:57.506Z,16.43
2022-12-22T08:49:24.701Z,18.00
2022-12-22T08:51:52.290Z,18.00
2022-12-22T08:54:19.414Z,20.10
2022-12-22T08:56:46.426Z,19.80
2022-12-22T08:59:13.470Z,19.40
2022-12-22T09:01:47.901Z,19.60
2022-12-22T09:04:19.888Z,19.13
2022-12-22T09:06:46.990Z,26.50
2022-12-22T09:09:15.239Z,25.03
2022-12-22T09:11:42.287Z,23.57
2022-12-22T09:14:10.263Z,25.10
2022-12-22T09:16:37.519Z,24.60
2022-12-22T09:19:04.266Z,19.57
2022-12-22T09:21:30.909Z,18.50
2022-12-22T09:23:58.182Z,13.77
2022-12-22T09:26:26.786Z,16.87
2022-12-22T09:28:54.985Z,17.33
2022-12-22T09:31:23.359Z,19.00
2022-12-22T09:33:50.100Z,19.73
2022-12-22T09:36:19.971Z,17.57
2022-12-22T09:38:47.433Z,22.57
2022-12-22T09:41:28.683Z,20.40
2022-12-22T09:43:56.569Z,21.77
2022-12-22T09:46:29.288Z,24.20
2022-12-22T09:48:55.978Z,24.30
2022-12-22T09:51:27.076Z,25.60
2022-12-22T09:53:59.037Z,25.17
2022-12-22T09:56:27.772Z,24.70
2022-12-22T09:58:54.655Z,26.50
2022-12-22T10:01:54.236Z,27.20
2022-12-22T10:04:28.297Z,25.53
2022-12-22T10:07:14.544Z,30.57
2022-12-22T10:09:50.763Z,30.77
2022-12-22T10:12:21.393Z,30.50
2022-12-22T10:14:50.350Z,31.03
2022-12-22T10:17:20.456Z,31.80
2022-12-22T10:19:48.986Z,34.53
2022-12-22T10:22:31.630Z,32.67
2022-12-22T10:25:02.226Z,39.33
2022-12-22T10:27:32.133Z,27.47
2022-12-22T10:30:19.732Z,28.47
2022-12-22T10:33:09.832Z,34.03
2022-12-22T10:35:54.536Z,32.57
2022-12-22T10:38:39.998Z,29.10
2022-12-22T10:41:13.798Z,31.77
2022-12-22T10:43:50.809Z,32.47
2022-12-22T10:46:20.229Z,31.40
2022-12-22T10:48:46.961Z,32.23
2022-12-22T10:51:15.031Z,30.60
2022-12-22T10:53:50.963Z,32.27
2022-12-22T10:56:27.877Z,27.67
2022-12-22T10:59:16.941Z,26.63
2022-12-22T11:01:43.742Z,24.73
2022-12-22T11:04:25.920Z,27.37
2022-12-22T11:06:54.981Z,25.03
2022-12-22T11:09:33.632Z,26.20
2022-12-22T11:12:40.221Z,26.40
2022-12-22T11:15:13.545Z,26.13
2022-12-22T11:18:07.037Z,27.00
2022-12-22T11:21:17.246Z,23.40
2022-12-22T11:24:31.569Z,24.73
2022-12-22T11:27:16.485Z,23.37
2022-12-22T11:30:14.039Z,24.90
2022-12-22T11:32:55.903Z,25.70
2022-12-22T11:35:48.761Z,24.90
2022-12-22T11:38:37.263Z,25.10
2022-12-22T11:41:06.622Z,24.67
2022-12-22T11:43:57.407Z,12.50
2022-12-22T11:46:53.301Z,10.13
2022-12-22T11:49:34.017Z,21.67
2022-12-22T11:52:22.696Z,22.03
2022-12-22T11:55:10.336Z,21.93
2022-12-22T11:58:00.884Z,19.70
2022-12-22T12:01:04.230Z,21.07
2022-12-22T12:04:01.041Z,21.40
2022-12-22T12:06:50.648Z,21.33
2022-12-22T12:09:53.279Z,19.90
2022-12-22T12:12:35.310Z,18.37
2022-12-22T12:15:19.288Z,19.70
2022-12-22T12:18:02.846Z,15.17
2022-12-22T12:20:38.740Z,13.53
2022-12-22T12:23:36.558Z,12.57
2022-12-22T12:26:24.569Z,11.50
2022-12-22T12:29:16.596Z,11.77
2022-12-22T12:31:59.529Z,10.87
2022-12-22T12:34:29.852Z,11.57
2022-12-22T12:37:27.593Z,11.50
2022-12-22T12:40:19.141Z,12.10
2022-12-22T12:42:47.356Z,11.50
2022-12-22T12:45:37.572Z,13.63
2022-12-22T12:48:36.980Z,12.93
2022-12-22T12:51:41.869Z,13.47
2022-12-22T12:54:30.190Z,14.63
2022-12-22T12:57:09.440Z,14.37
2022-12-22T12:59:41.944Z,13.30
2022-12-22T13:02:27.072Z,13.37
2022-12-22T13:05:11.368Z,13.07
2022-12-22T13:08:08.980Z,11.23
2022-12-22T13:10:46.020Z,11.17
2022-12-22T13:13:21.863Z,11.50
2022-12-22T13:16:00.634Z,12.20
2022-12-22T13:18:30.032Z,11.50
2022-12-22T13:24:26.569Z,11.50
2022-12-22T13:26:55.897Z,10.87
2022-12-22T13:29:22.674Z,11.63
2022-12-22T13:31:57.521Z,10.53
2022-12-22T13:34:33.294Z,10.90
2022-12-22T13:37:14.532Z,10.97
2022-12-22T13:39:41.199Z,10.37
2022-12-22T13:42:11.606Z,9.70
2022-12-22T13:44:39.232Z,9.00
2022-12-22T13:47:12.741Z,7.93
2022-12-22T13:50:07.747Z,5.80
2022-12-22T13:52:28.710Z,7.30
2022-12-22T13:54:55.397Z,6.73
2022-12-22T13:57:23.066Z,5.80
2022-12-22T13:59:51.507Z,7.30
2022-12-22T14:02:21.070Z,5.87
2022-12-22T14:05:11.445Z,6.23
2022-12-22T14:07:38.437Z,5.90
2022-12-22T14:10:05.844Z,6.70
2022-12-22T14:12:42.014Z,6.47
2022-12-22T14:15:16.933Z,6.97
2022-12-22T14:17:52.001Z,7.00
2022-12-22T14:20:26.045Z,6.53
2022-12-22T14:22:57.531Z,7.33
2022-12-22T14:25:34.145Z,6.67
2022-12-22T14:28:01.865Z,6.60
2022-12-22T14:30:38.520Z,7.43
2022-12-22T14:33:23.448Z,6.80
2022-12-22T14:35:50.431Z,8.10
2022-12-22T14:38:24.723Z,9.17
2022-12-22T14:40:57.646Z,8.67
2022-12-22T14:43:31.269Z,8.00
2022-12-22T14:46:05.542Z,8.10
2022-12-22T14:48:39.626Z,7.87
2022-12-22T14:51:07.050Z,7.57
2022-12-22T14:53:43.388Z,7.57
2022-12-22T14:56:14.863Z,8.50
2022-12-22T14:58:43.858Z,7.80
2022-12-22T15:01:29.024Z,8.03
2022-12-22T15:04:02.273Z,7.57
2022-12-22T15:06:28.919Z,8.50
2022-12-22T15:09:06.297Z,7.87
2022-12-22T15:11:33.764Z,7.40
2022-12-22T15:14:01.844Z,8.87
2022-12-22T15:16:28.631Z,8.20
2022-12-22T15:18:55.584Z,6.63
2022-12-22T15:21:22.872Z,7.13
2022-12-22T15:23:49.563Z,7.50
2022-12-22T15:26:16.417Z,7.63
2022-12-22T15:28:43.049Z,7.53
2022-12-22T15:31:16.958Z,8.13
2022-12-22T15:33:44.920Z,9.00
2022-12-22T15:36:13.720Z,9.50
2022-12-22T15:38:41.084Z,8.87
2022-12-22T15:41:08.151Z,9.17
2022-12-22T15:46:22.489Z,8.73
2022-12-22T15:48:49.338Z,8.93
2022-12-22T15:51:22.508Z,9.37
2022-12-22T15:53:50.132Z,8.00
2022-12-22T15:56:20.762Z,7.70
2022-12-22T15:58:47.907Z,8.67
2022-12-22T16:01:14.726Z,8.40
2022-12-22T16:03:41.756Z,8.33
2022-12-22T16:06:17.226Z,9.40
2022-12-22T16:08:49.319Z,10.37
2022-12-22T16:11:17.061Z,9.60
2022-12-22T16:13:44.241Z,9.57
2022-12-22T16:16:11.663Z,10.00
2022-12-22T16:18:38.430Z,11.23
2022-12-22T16:21:17.138Z,11.60
2022-12-22T16:23:46.669Z,12.50
2022-12-22T16:26:19.372Z,12.30
2022-12-22T16:28:46.625Z,12.80
2022-12-22T16:31:19.903Z,12.20
2022-12-22T16:33:47.286Z,12.60
2022-12-22T16:36:14.157Z,13.00
2022-12-22T16:38:41.282Z,13.17
2022-12-22T16:41:22.357Z,11.80
2022-12-22T16:43:50.925Z,4.63
2022-12-22T16:46:20.524Z,11.40
2022-12-22T16:48:53.803Z,11.53
2022-12-22T16:51:37.093Z,12.87
2022-12-22T16:54:04.397Z,11.03
2022-12-22T16:56:31.701Z,12.60
2022-12-22T16:58:58.624Z,12.70
2022-12-22T17:01:39.974Z,11.90
2022-12-22T17:04:11.861Z,12.20
2022-12-22T17:06:39.385Z,10.80
2022-12-22T17:09:12.879Z,11.90
2022-12-22T17:11:39.707Z,11.03
2022-12-22T17:14:31.823Z,10.27
2022-12-22T17:17:00.535Z,12.47
2022-12-22T17:19:27.228Z,12.13
2022-12-22T17:21:55.653Z,8.77
2022-12-22T17:24:28.032Z,9.63
2022-12-22T17:27:00.801Z,7.90
2022-12-22T17:29:28.242Z,10.00
2022-12-22T17:31:56.362Z,9.47
2022-12-22T17:34:23.630Z,8.67
2022-12-22T17:36:50.603Z,7.77
2022-12-22T17:39:20.954Z,8.20
2022-12-22T17:41:52.296Z,7.10
2022-12-22T17:44:25.391Z,7.40
2022-12-22T17:46:52.193Z,7.10
2022-12-22T17:49:21.869Z,5.37
2022-12-22T17:51:48.733Z,5.23
2022-12-22T17:54:23.659Z,4.37
2022-12-22T17:56:50.496Z,4.60
2022-12-22T17:59:17.160Z,3.70
2022-12-22T18:01:43.831Z,4.47
2022-12-22T18:04:10.679Z,4.00
2022-12-22T18:06:39.228Z,4.00
2022-12-22T18:09:07.542Z,3.63
2022-12-22T18:11:34.275Z,4.50
2022-12-22T18:14:01.040Z,3.33
2022-12-22T18:16:28.291Z,2.93
2022-12-22T18:18:54.933Z,3.20
2022-12-22T18:21:24.170Z,2.90
2022-12-22T18:23:51.763Z,2.60
2022-12-22T18:26:28.611Z,2.50
2022-12-22T18:28:55.366Z,2.60
2022-12-22T18:31:23.489Z,2.70
2022-12-22T18:33:50.568Z,2.80
2022-12-22T18:36:26.770Z,2.30
2022-12-22T18:38:53.677Z,2.80
2022-12-22T18:41:23.314Z,1.53
2022-12-22T18:43:50.393Z,2.23
2022-12-22T18:46:17.988Z,2.40
2022-12-22T18:48:47.119Z,2.20
2022-12-22T18:51:19.313Z,2.30
2022-12-22T18:53:46.203Z,2.40
2022-12-22T18:56:14.191Z,1.90
2022-12-22T18:58:42.169Z,2.27
2022-12-22T19:01:21.382Z,2.70
2022-12-22T19:03:48.915Z,2.50
2022-12-22T19:06:19.714Z,2.70
2022-12-22T19:08:49.459Z,2.20
2022-12-22T19:11:21.357Z,2.70
2022-12-22T19:13:50.900Z,2.47
2022-12-22T19:16:22.991Z,2.17
2022-12-22T19:18:49.770Z,3.30
2022-12-22T19:21:18.191Z,2.93
2022-12-22T19:23:45.156Z,3.23
2022-12-22T19:26:22.597Z,2.40
2022-12-22T19:28:54.055Z,3.50
2022-12-22T19:31:25.148Z,3.00
2022-12-22T19:33:53.334Z,2.50
2022-12-22T19:36:26.744Z,2.87
2022-12-22T19:39:03.895Z,3.23
2022-12-22T19:41:31.485Z,5.20
2022-12-22T19:43:58.506Z,4.00
2022-12-22T19:46:27.949Z,3.30
2022-12-22T19:48:56.796Z,4.10
2022-12-22T19:51:23.451Z,3.50
2022-12-22T19:53:50.083Z,3.10
2022-12-22T19:56:31.417Z,4.27
2022-12-22T19:59:00.573Z,4.23
2022-12-22T20:01:27.588Z,4.50
2022-12-22T20:03:55.827Z,4.33
2022-12-22T20:06:22.655Z,3.47
2022-12-22T20:08:49.601Z,3.13
2022-12-22T20:11:19.115Z,3.37
2022-12-22T20:13:47.385Z,3.40
2022-12-22T20:16:16.525Z,3.23
2022-12-22T20:18:44.025Z,3.00
2022-12-22T20:21:21.087Z,3.30
2022-12-22T20:23:48.131Z,2.77
2022-12-22T20:26:20.733Z,2.73
2022-12-22T20:28:49.569Z,4.00
2022-12-22T20:31:17.654Z,3.23
2022-12-22T20:33:44.362Z,3.70
2022-12-22T20:36:31.664Z,2.90
2022-12-22T20:39:00.067Z,3.20
2022-12-22T20:41:26.899Z,3.40
2022-12-22T20:43:53.810Z,4.40
2022-12-22T20:46:26.215Z,3.10
2022-12-22T20:48:55.806Z,4.40
2022-12-22T20:51:25.403Z,4.10
2022-12-22T20:53:53.013Z,4.53
2022-12-22T20:56:32.035Z,3.33
2022-12-22T20:59:00.797Z,4.40
2022-12-22T21:01:28.340Z,3.60
2022-12-22T21:03:55.171Z,4.03
2022-12-22T21:06:28.874Z,4.27
2022-12-22T21:08:57.606Z,4.07
2022-12-22T21:11:25.104Z,4.90
2022-12-22T21:13:51.931Z,4.43
2022-12-22T21:16:23.630Z,3.70
2022-12-22T21:18:51.616Z,4.80
2022-12-22T21:21:19.078Z,3.93
2022-12-22T21:23:45.781Z,3.60
2022-12-22T21:26:21.425Z,5.20
2022-12-22T21:28:48.577Z,4.80
2022-12-22T21:31:15.352Z,4.80
2022-12-22T21:33:42.313Z,4.50
2022-12-22T21:36:35.820Z,5.07
2022-12-22T21:39:28.983Z,4.20
2022-12-22T21:42:03.233Z,5.20
2022-12-22T21:44:35.080Z,3.80
2022-12-22T21:47:02.322Z,5.13
2022-12-22T21:49:31.766Z,4.13
2022-12-22T21:51:59.032Z,5.00
2022-12-22T21:54:26.237Z,4.80
2022-12-22T21:56:53.949Z,4.70
2022-12-22T21:59:21.364Z,4.60
2022-12-22T22:01:48.570Z,4.97
2022-12-22T22:04:15.466Z,5.23
2022-12-22T22:06:42.156Z,5.20
2022-12-22T22:09:09.194Z,5.63
2022-12-22T22:11:56.441Z,6.20
2022-12-22T22:14:23.043Z,5.40
2022-12-22T22:16:49.949Z,5.17
2022-12-22T22:19:17.833Z,5.60
2022-12-22T22:21:45.646Z,5.37
2022-12-22T22:24:12.812Z,5.10
2022-12-22T22:26:39.431Z,4.60
2022-12-22T22:29:06.112Z,6.67
2022-12-22T22:31:32.918Z,6.47
2022-12-22T22:33:59.586Z,7.00
2022-12-22T22:36:26.196Z,7.60
2022-12-22T22:38:52.820Z,7.30
2022-12-22T22:41:19.409Z,7.70
2022-12-22T22:43:46.011Z,7.17
2022-12-22T22:46:12.612Z,7.20
2022-12-22T22:48:39.223Z,7.17
2022-12-22T22:51:09.921Z,7.27
2022-12-22T22:53:36.644Z,6.97
2022-12-22T22:56:03.610Z,7.73
2022-12-22T22:58:30.339Z,6.23
2022-12-22T23:01:04.829Z,5.80
2022-12-22T23:03:31.724Z,6.00
2022-12-22T23:06:06.553Z,5.00
2022-12-22T23:08:34.044Z,5.90
2022-12-22T23:11:01.933Z,4.67
2022-12-22T23:13:28.766Z,5.60
2022-12-22T23:15:56.232Z,4.10
2022-12-22T23:18:24.031Z,4.53
2022-12-22T23:20:51.076Z,4.20
2022-12-22T23:23:18.165Z,4.43
2022-12-22T23:25:46.271Z,4.17
2022-12-22T23:28:13.049Z,4.63
2022-12-22T23:30:41.396Z,5.37
2022-12-22T23:33:08.742Z,4.20
2022-12-22T23:35:39.444Z,4.97
2022-12-22T23:38:09.697Z,5.20
2022-12-22T23:40:54.742Z,4.60
2022-12-22T23:43:22.177Z,5.33
2022-12-22T23:45:48.966Z,5.53
2022-12-22T23:48:15.607Z,4.80
2022-12-22T23:50:46.164Z,5.80
2022-12-22T23:53:13.091Z,5.27
2022-12-22T23:55:44.473Z,5.63
2022-12-22T23:58:11.202Z,6.13
